createdAt,value
2023-01-30T00:02:31.962Z,66.73
2023-01-30T00:05:43.333Z,66.95
2023-01-30T00:09:05.946Z,66.66
2023-01-30T00:12:18.199Z,66.22
2023-01-30T00:15:21.784Z,64.96
2023-01-30T00:18:35.870Z,66.62
2023-01-30T00:21:50.809Z,65.74
2023-01-30T00:25:16.473Z,65.61
2023-01-30T00:28:28.477Z,65.54
2023-01-30T00:31:34.222Z,65.30
2023-01-30T00:34:49.714Z,64.90
2023-01-30T00:37:58.060Z,64.62
2023-01-30T00:41:04.384Z,65.46
2023-01-30T00:44:30.064Z,65.36
2023-01-30T00:47:37.653Z,65.42
2023-01-30T00:50:45.555Z,64.70
2023-01-30T00:53:53.085Z,64.89
2023-01-30T00:57:15.622Z,64.49
2023-01-30T01:00:37.515Z,65.46
2023-01-30T01:03:47.965Z,64.90
2023-01-30T01:06:58.408Z,65.50
2023-01-30T01:10:04.184Z,65.90
2023-01-30T01:13:18.585Z,66.07
2023-01-30T01:16:37.884Z,65.58
2023-01-30T01:20:01.511Z,66.42
2023-01-30T01:23:18.085Z,65.94
2023-01-30T01:26:22.186Z,66.22
2023-01-30T01:29:26.277Z,66.67
2023-01-30T01:32:40.592Z,66.68
2023-01-30T01:35:57.217Z,67.25
2023-01-30T01:39:20.566Z,66.21
2023-01-30T01:42:40.849Z,66.23
2023-01-30T01:46:01.699Z,66.69
2023-01-30T01:49:29.169Z,67.92
2023-01-30T01:52:51.911Z,66.82
2023-01-30T01:56:09.062Z,66.84
2023-01-30T01:59:37.885Z,66.28
2023-01-30T02:03:10.885Z,67.03
2023-01-30T02:06:16.550Z,67.70
2023-01-30T02:09:22.488Z,66.85
2023-01-30T02:12:29.800Z,67.34
2023-01-30T02:15:42.444Z,67.27
2023-01-30T02:18:50.100Z,67.93
2023-01-30T02:22:18.111Z,68.02
2023-01-30T02:25:43.530Z,67.21
2023-01-30T02:29:42.944Z,68.23
2023-01-30T02:32:57.581Z,68.93
2023-01-30T02:36:27.144Z,68.42
2023-01-30T02:39:36.343Z,67.80
2023-01-30T02:43:06.528Z,68.43
2023-01-30T02:46:38.046Z,68.26
2023-01-30T02:49:49.025Z,68.36
2023-01-30T02:52:56.724Z,68.41
2023-01-30T02:56:12.425Z,68.55
2023-01-30T02:59:39.558Z,69.06
2023-01-30T03:03:27.592Z,67.89
2023-01-30T03:06:44.101Z,67.11
2023-01-30T03:10:02.992Z,66.59
2023-01-30T03:13:30.838Z,66.92
2023-01-30T03:17:00.727Z,66.91
2023-01-30T03:20:08.513Z,66.67
2023-01-30T03:23:20.462Z,65.69
2023-01-30T03:26:28.219Z,66.26
2023-01-30T03:29:49.003Z,65.18
2023-01-30T03:33:15.422Z,65.27
2023-01-30T03:36:42.355Z,64.41
2023-01-30T03:39:48.335Z,64.51
2023-01-30T03:42:55.348Z,64.20
2023-01-30T03:46:05.729Z,65.59
2023-01-30T03:49:18.508Z,65.50
2023-01-30T03:52:45.971Z,66.03
2023-01-30T03:56:03.370Z,66.23
2023-01-30T03:59:21.120Z,68.18
2023-01-30T04:02:30.891Z,69.39
2023-01-30T04:05:44.149Z,68.15
2023-01-30T04:08:52.559Z,68.39
2023-01-30T04:12:08.065Z,69.03
2023-01-30T04:15:26.048Z,68.34
2023-01-30T04:18:54.117Z,69.00
2023-01-30T04:22:05.829Z,68.16
2023-01-30T04:25:30.364Z,69.18
2023-01-30T04:28:58.988Z,68.63
2023-01-30T04:32:06.966Z,68.39
2023-01-30T04:35:22.595Z,70.16
2023-01-30T04:38:35.234Z,70.11
2023-01-30T04:41:52.361Z,70.23
2023-01-30T04:45:10.932Z,70.38
2023-01-30T04:48:26.477Z,70.46
2023-01-30T04:51:38.893Z,71.04
2023-01-30T04:54:46.898Z,69.63
2023-01-30T04:58:13.976Z,70.65
2023-01-30T05:01:50.281Z,70.84
2023-01-30T05:05:08.126Z,71.04
2023-01-30T05:08:26.466Z,71.67
2023-01-30T05:11:51.798Z,71.21
2023-01-30T05:15:21.605Z,71.59
2023-01-30T05:18:36.919Z,71.19
2023-01-30T05:22:00.792Z,72.03
2023-01-30T05:25:15.771Z,70.69
2023-01-30T05:28:26.933Z,71.21
2023-01-30T05:31:36.680Z,72.02
2023-01-30T05:34:49.057Z,71.51
2023-01-30T05:38:09.491Z,72.14
2023-01-30T05:41:16.904Z,72.50
2023-01-30T05:44:42.545Z,73.21
2023-01-30T05:48:05.985Z,73.00
2023-01-30T05:51:40.870Z,72.71
2023-01-30T05:55:03.649Z,72.37
2023-01-30T05:58:27.368Z,72.12
2023-01-30T06:01:48.444Z,72.98
2023-01-30T06:05:12.330Z,72.06
2023-01-30T06:08:27.662Z,72.00
2023-01-30T06:11:30.858Z,72.23
2023-01-30T06:14:56.363Z,71.83
2023-01-30T06:18:25.722Z,70.87
2023-01-30T06:21:51.952Z,70.90
2023-01-30T06:25:12.966Z,70.53
2023-01-30T06:28:24.599Z,69.92
2023-01-30T06:31:37.240Z,69.08
2023-01-30T06:34:40.549Z,68.67
2023-01-30T06:37:48.534Z,69.49
2023-01-30T06:40:58.509Z,68.85
2023-01-30T06:44:06.683Z,68.71
2023-01-30T06:47:20.666Z,68.88
2023-01-30T06:50:26.832Z,68.29
2023-01-30T06:53:36.682Z,69.68
2023-01-30T06:56:40.580Z,68.66
2023-01-30T06:59:54.129Z,68.75
2023-01-30T07:03:20.421Z,68.53
2023-01-30T07:06:40.040Z,68.83
2023-01-30T07:10:07.888Z,68.79
2023-01-30T07:13:27.242Z,69.07
2023-01-30T07:16:37.224Z,68.75
2023-01-30T07:19:56.509Z,68.86
2023-01-30T07:23:19.667Z,68.77
2023-01-30T07:26:51.012Z,69.13
2023-01-30T07:30:21.668Z,68.34
2023-01-30T07:33:41.703Z,67.53
2023-01-30T07:37:03.962Z,67.33
2023-01-30T07:40:36.314Z,67.16
2023-01-30T07:44:05.442Z,67.29
2023-01-30T07:47:25.524Z,67.96
2023-01-30T07:55:37.567Z,67.05
2023-01-30T07:59:44.641Z,66.37
2023-01-30T08:06:55.611Z,66.35
2023-01-30T08:09:59.195Z,66.55
2023-01-30T08:13:09.201Z,65.92
2023-01-30T08:16:26.952Z,66.41
2023-01-30T08:19:49.835Z,66.37
2023-01-30T08:22:54.660Z,66.16
2023-01-30T08:26:04.204Z,66.46
2023-01-30T08:29:08.072Z,66.76
2023-01-30T08:32:11.424Z,65.57
2023-01-30T08:35:22.988Z,65.81
2023-01-30T08:38:46.378Z,65.91
2023-01-30T08:41:57.307Z,65.77
2023-01-30T08:56:25.630Z,63.55
2023-01-30T08:59:46.735Z,62.89
2023-01-30T09:02:58.154Z,64.47
2023-01-30T09:06:16.561Z,64.35
2023-01-30T09:09:38.200Z,64.05
2023-01-30T09:13:53.603Z,63.51
2023-01-30T09:17:04.761Z,63.85
2023-01-30T09:20:10.612Z,63.00
2023-01-30T09:23:19.779Z,63.33
2023-01-30T09:26:38.356Z,63.80
2023-01-30T09:30:03.214Z,63.23
2023-01-30T09:33:06.481Z,62.52
2023-01-30T09:36:10.937Z,62.17
2023-01-30T09:39:21.473Z,62.25
2023-01-30T10:08:17.631Z,62.02
2023-01-30T10:12:38.051Z,60.99
2023-01-30T10:20:54.629Z,60.28
2023-01-30T10:24:25.012Z,59.70
2023-01-30T10:34:17.746Z,59.64
2023-01-30T10:54:42.460Z,58.06
2023-01-30T10:58:26.888Z,58.23
2023-01-30T11:01:56.100Z,59.18
2023-01-30T11:05:27.618Z,58.88
2023-01-30T11:08:35.403Z,59.31
2023-01-30T11:11:56.359Z,62.00
2023-01-30T11:15:16.508Z,62.09
2023-01-30T11:22:27.260Z,61.97
2023-01-30T11:25:32.382Z,60.86
2023-01-30T11:28:46.941Z,60.38
2023-01-30T11:32:07.275Z,62.27
2023-01-30T11:35:24.953Z,61.13
2023-01-30T11:38:40.893Z,60.67
2023-01-30T11:42:10.865Z,61.05
2023-01-30T11:45:36.181Z,61.37
2023-01-30T11:49:31.879Z,61.30
2023-01-30T11:52:33.408Z,60.75
2023-01-30T11:56:19.533Z,59.35
2023-01-30T11:59:47.660Z,60.29
2023-01-30T12:03:42.055Z,60.80
2023-01-30T12:07:26.988Z,60.76
2023-01-30T12:15:31.851Z,59.92
2023-01-30T12:18:57.790Z,59.50
2023-01-30T12:22:13.239Z,59.41
2023-01-30T12:25:45.183Z,60.32
2023-01-30T12:29:18.640Z,60.02
2023-01-30T12:32:35.264Z,60.68
2023-01-30T12:36:05.893Z,61.83
2023-01-30T12:39:36.018Z,61.99
2023-01-30T12:42:58.325Z,61.55
2023-01-30T12:46:37.184Z,61.35
2023-01-30T12:49:59.130Z,61.83
2023-01-30T12:53:22.761Z,62.83
2023-01-30T12:56:52.571Z,62.91
2023-01-30T13:01:22.914Z,63.18
2023-01-30T13:05:55.651Z,62.95
2023-01-30T13:09:50.753Z,63.31
2023-01-30T13:13:20.195Z,63.92
2023-01-30T13:16:53.661Z,63.94
2023-01-30T13:20:14.085Z,64.51
2023-01-30T13:23:24.190Z,65.05
2023-01-30T13:26:43.988Z,65.36
2023-01-30T13:30:09.533Z,64.39
2023-01-30T13:33:36.016Z,64.69
2023-01-30T13:37:22.546Z,63.83
2023-01-30T13:41:00.588Z,63.23
2023-01-30T13:44:40.713Z,63.09
2023-01-30T13:48:19.901Z,62.70
2023-01-30T13:51:44.158Z,61.33
2023-01-30T13:55:36.461Z,61.52
2023-01-30T14:00:15.599Z,61.04
2023-01-30T14:03:45.038Z,61.15
2023-01-30T14:07:07.490Z,60.65
2023-01-30T14:10:49.605Z,60.57
2023-01-30T14:14:05.297Z,60.56
2023-01-30T14:17:22.161Z,60.81
2023-01-30T14:20:49.150Z,60.36
2023-01-30T14:24:07.328Z,61.24
2023-01-30T14:27:34.002Z,61.66
2023-01-30T14:30:59.372Z,62.03
2023-01-30T14:34:48.220Z,62.38
2023-01-30T14:38:25.605Z,64.59
2023-01-30T14:41:38.695Z,65.91
2023-01-30T14:45:02.120Z,67.41
2023-01-30T14:48:41.698Z,68.51
2023-01-30T14:52:02.355Z,68.48
2023-01-30T14:55:30.517Z,69.32
2023-01-30T14:58:37.853Z,70.40
2023-01-30T15:02:09.716Z,70.56
2023-01-30T15:05:20.415Z,70.65
2023-01-30T15:08:27.713Z,70.48
2023-01-30T15:11:35.662Z,70.02
2023-01-30T15:14:54.168Z,69.49
2023-01-30T15:18:24.566Z,69.00
2023-01-30T15:21:41.028Z,69.23
2023-01-30T15:25:15.940Z,69.36
2023-01-30T15:28:25.662Z,68.99
2023-01-30T15:31:35.395Z,68.33
2023-01-30T15:34:56.404Z,68.54
2023-01-30T15:38:15.377Z,67.74
2023-01-30T15:41:44.100Z,69.89
2023-01-30T15:45:21.319Z,70.21
2023-01-30T15:48:42.067Z,70.26
2023-01-30T15:51:52.298Z,72.47
2023-01-30T15:55:02.487Z,72.67
2023-01-30T15:58:24.138Z,73.07
2023-01-30T16:01:55.297Z,73.58
2023-01-30T16:05:27.381Z,73.76
2023-01-30T16:08:37.232Z,73.88
2023-01-30T16:12:00.177Z,74.25
2023-01-30T16:15:26.258Z,73.89
2023-01-30T16:18:52.813Z,73.54
2023-01-30T16:22:22.364Z,75.32
2023-01-30T16:25:34.633Z,73.21
2023-01-30T16:28:56.105Z,72.57
2023-01-30T16:32:18.672Z,73.87
2023-01-30T16:35:27.187Z,74.65
2023-01-30T16:38:38.796Z,75.19
2023-01-30T16:41:55.667Z,75.48
2023-01-30T16:45:32.733Z,75.57
2023-01-30T16:48:40.593Z,76.90
2023-01-30T16:51:47.562Z,76.88
2023-01-30T16:55:04.857Z,77.26
2023-01-30T16:58:29.719Z,76.75
2023-01-30T17:01:41.595Z,77.57
2023-01-30T17:04:44.978Z,77.03
2023-01-30T17:07:50.703Z,78.14
2023-01-30T17:11:02.249Z,77.76
2023-01-30T17:14:31.427Z,76.62
2023-01-30T17:17:39.283Z,75.71
2023-01-30T17:20:48.248Z,74.68
2023-01-30T17:24:01.636Z,74.58
2023-01-30T17:27:09.498Z,74.71
2023-01-30T17:30:17.959Z,75.16
2023-01-30T17:33:21.933Z,74.45
2023-01-30T17:36:30.891Z,74.46
2023-01-30T17:39:47.187Z,74.04
2023-01-30T17:43:03.917Z,73.48
2023-01-30T17:47:11.828Z,73.15
2023-01-30T17:50:39.102Z,73.34
2023-01-30T17:53:59.787Z,73.58
2023-01-30T17:57:27.889Z,73.70
2023-01-30T18:00:51.800Z,73.03
2023-01-30T18:04:13.921Z,72.63
2023-01-30T18:07:17.151Z,72.21
2023-01-30T18:10:24.873Z,71.78
2023-01-30T18:13:35.648Z,71.49
2023-01-30T18:16:45.364Z,71.33
2023-01-30T18:20:09.757Z,71.52
2023-01-30T18:23:30.166Z,70.77
2023-01-30T18:26:47.234Z,71.24
2023-01-30T18:29:50.385Z,71.34
2023-01-30T18:32:57.296Z,71.21
2023-01-30T18:36:12.901Z,70.63
2023-01-30T18:39:32.792Z,70.19
2023-01-30T18:42:35.904Z,70.15
2023-01-30T18:45:39.764Z,71.46
2023-01-30T18:48:52.326Z,70.75
2023-01-30T18:51:56.592Z,70.23
2023-01-30T18:55:02.229Z,70.08
2023-01-30T18:58:09.021Z,70.88
2023-01-30T19:01:22.109Z,70.21
2023-01-30T19:04:25.763Z,70.01
2023-01-30T19:07:32.834Z,70.33
2023-01-30T19:10:53.487Z,70.24
2023-01-30T19:14:15.436Z,69.83
2023-01-30T19:17:38.597Z,69.92
2023-01-30T19:21:04.355Z,69.75
2023-01-30T19:24:12.327Z,69.76
2023-01-30T19:27:16.401Z,69.79
2023-01-30T19:30:19.773Z,68.59
2023-01-30T19:33:27.059Z,68.23
2023-01-30T19:36:34.755Z,67.86
2023-01-30T19:39:39.043Z,68.02
2023-01-30T19:43:10.357Z,68.60
2023-01-30T19:46:20.594Z,68.18
2023-01-30T19:49:36.628Z,68.45
2023-01-30T19:53:05.458Z,69.25
2023-01-30T19:56:27.440Z,69.32
2023-01-30T19:59:49.575Z,69.54
2023-01-30T20:03:13.563Z,70.49
2023-01-30T20:06:33.756Z,70.50
2023-01-30T20:09:57.521Z,70.12
2023-01-30T20:13:21.581Z,69.38
2023-01-30T20:16:43.429Z,68.92
2023-01-30T20:20:03.498Z,67.94
2023-01-30T20:23:25.441Z,67.28
2023-01-30T20:26:39.731Z,66.92
2023-01-30T20:30:03.501Z,66.81
2023-01-30T20:33:24.708Z,67.47
2023-01-30T20:36:44.302Z,67.63
2023-01-30T20:40:11.321Z,67.72
2023-01-30T20:43:35.381Z,67.20
2023-01-30T20:46:56.380Z,66.83
2023-01-30T20:50:20.605Z,66.96
2023-01-30T20:53:27.638Z,66.36
2023-01-30T20:56:34.487Z,65.93
2023-01-30T20:59:45.286Z,65.67
2023-01-30T21:03:05.970Z,65.66
2023-01-30T21:06:42.259Z,65.17
2023-01-30T21:09:55.579Z,65.77
2023-01-30T21:13:15.927Z,65.38
2023-01-30T21:16:41.157Z,64.94
2023-01-30T21:19:59.054Z,65.51
2023-01-30T21:23:21.059Z,65.88
2023-01-30T21:26:27.346Z,66.44
2023-01-30T21:29:31.215Z,69.91
2023-01-30T21:32:54.216Z,71.77
2023-01-30T21:36:04.800Z,71.49
2023-01-30T21:39:32.574Z,72.64
2023-01-30T21:43:00.567Z,72.71
2023-01-30T21:46:10.903Z,72.69
2023-01-30T21:49:34.210Z,72.98
2023-01-30T21:52:50.334Z,72.05
2023-01-30T21:56:07.169Z,72.12
2023-01-30T21:59:14.000Z,72.08
2023-01-30T22:02:17.739Z,71.58
2023-01-30T22:05:36.735Z,71.25
2023-01-30T22:08:54.215Z,71.17
2023-01-30T22:12:16.073Z,70.28
2023-01-30T22:15:34.110Z,69.12
2023-01-30T22:18:37.798Z,68.84
2023-01-30T22:21:48.696Z,68.32
2023-01-30T22:24:57.076Z,67.48
2023-01-30T22:27:59.930Z,67.82
2023-01-30T22:31:18.223Z,67.86
2023-01-30T22:34:24.566Z,67.69
2023-01-30T22:37:34.279Z,67.24
2023-01-30T22:40:37.424Z,67.73
2023-01-30T22:43:44.908Z,68.05
2023-01-30T22:46:52.503Z,69.54
2023-01-30T22:50:08.249Z,69.74
2023-01-30T22:53:29.045Z,70.31
2023-01-30T22:56:56.165Z,69.87
2023-01-30T23:00:12.977Z,70.48
2023-01-30T23:03:43.085Z,69.85
2023-01-30T23:07:05.653Z,68.09
2023-01-30T23:10:27.932Z,66.81
2023-01-30T23:13:54.618Z,66.16
2023-01-30T23:17:33.639Z,65.70
2023-01-30T23:20:38.279Z,65.90
2023-01-30T23:24:03.032Z,65.84
2023-01-30T23:27:22.003Z,66.03
2023-01-30T23:30:39.021Z,65.35
2023-01-30T23:34:04.855Z,66.99
2023-01-30T23:37:42.635Z,68.04
2023-01-30T23:40:56.885Z,69.21
2023-01-30T23:44:13.178Z,71.39
2023-01-30T23:47:32.931Z,73.06
2023-01-30T23:50:55.832Z,74.97
2023-01-30T23:54:13.886Z,74.89
2023-01-30T23:57:43.865Z,74.22
